createdAt,value
2023-02-27T00:03:08.941Z,60.45
2023-02-27T00:07:06.795Z,60.76
2023-02-27T00:11:04.894Z,58.91
2023-02-27T00:15:02.875Z,58.51
2023-02-27T00:19:00.857Z,59.26
2023-02-27T00:22:59.961Z,58.93
2023-02-27T00:26:57.837Z,60.47
2023-02-27T00:30:55.947Z,61.49
2023-02-27T00:34:53.794Z,63.45
2023-02-27T00:38:53.039Z,62.11
2023-02-27T00:42:50.869Z,60.97
2023-02-27T00:46:48.790Z,61.35
2023-02-27T00:50:46.776Z,62.27
2023-02-27T00:54:44.804Z,62.09
2023-02-27T00:58:42.927Z,59.49
2023-02-27T01:02:40.757Z,56.60
2023-02-27T01:06:39.057Z,57.41
2023-02-27T01:10:36.768Z,58.61
2023-02-27T01:14:34.714Z,59.75
2023-02-27T01:18:32.690Z,59.48
2023-02-27T01:22:30.765Z,59.05
2023-02-27T01:26:28.748Z,59.41
2023-02-27T01:30:26.739Z,59.71
2023-02-27T01:34:24.671Z,59.44
2023-02-27T01:38:22.716Z,60.26
2023-02-27T01:42:29.731Z,60.35
2023-02-27T01:46:27.658Z,60.36
2023-02-27T01:50:26.646Z,60.25
2023-02-27T01:54:25.692Z,60.86
2023-02-27T01:58:28.654Z,61.26
2023-02-27T02:02:37.701Z,61.54
2023-02-27T02:06:37.615Z,61.26
2023-02-27T02:10:36.708Z,61.19
2023-02-27T02:14:34.641Z,61.17
2023-02-27T02:18:45.617Z,61.21
2023-02-27T02:23:07.626Z,61.15
2023-02-27T02:27:16.633Z,61.52
2023-02-27T02:31:52.675Z,61.65
2023-02-27T02:36:33.605Z,61.64
2023-02-27T02:41:00.657Z,61.70
2023-02-27T02:45:12.627Z,61.94
2023-02-27T02:49:20.571Z,62.57
2023-02-27T02:53:36.061Z,61.37
2023-02-27T02:57:41.645Z,61.48
2023-02-27T03:02:15.570Z,60.03
2023-02-27T03:06:22.559Z,57.33
2023-02-27T03:10:26.587Z,59.48
2023-02-27T03:15:03.675Z,60.17
2023-02-27T03:19:07.624Z,58.46
2023-02-27T03:23:09.585Z,58.58
2023-02-27T03:27:11.533Z,58.94
2023-02-27T03:31:17.611Z,58.89
2023-02-27T03:35:16.510Z,60.04
2023-02-27T03:39:23.515Z,61.01
2023-02-27T03:43:55.597Z,61.48
2023-02-27T03:47:53.513Z,60.48
2023-02-27T03:51:51.541Z,59.79
2023-02-27T03:55:54.465Z,59.77
2023-02-27T03:59:52.596Z,60.04
2023-02-27T04:03:54.503Z,59.85
2023-02-27T04:08:54.463Z,59.99
2023-02-27T04:13:20.449Z,60.11
2023-02-27T04:17:42.517Z,60.11
2023-02-27T04:21:56.433Z,60.11
2023-02-27T04:26:05.540Z,60.46
2023-02-27T04:30:10.408Z,60.83
2023-02-27T04:34:33.497Z,61.28
2023-02-27T04:38:42.525Z,61.51
2023-02-27T04:42:54.471Z,61.61
2023-02-27T04:46:56.457Z,61.68
2023-02-27T04:51:04.512Z,61.92
2023-02-27T04:55:11.510Z,61.56
2023-02-27T04:59:14.430Z,61.91
2023-02-27T05:03:24.402Z,64.16
2023-02-27T05:07:26.436Z,63.75
2023-02-27T05:11:33.412Z,61.92
2023-02-27T05:15:34.488Z,62.47
2023-02-27T05:19:33.371Z,61.64
2023-02-27T05:23:36.376Z,60.88
2023-02-27T05:27:43.314Z,61.95
2023-02-27T05:31:56.499Z,60.10
2023-02-27T05:36:06.479Z,57.44
2023-02-27T05:40:06.378Z,57.48
2023-02-27T05:44:17.351Z,59.01
2023-02-27T05:48:25.374Z,59.37
2023-02-27T05:52:29.390Z,60.82
2023-02-27T05:56:31.366Z,63.06
2023-02-27T06:01:02.315Z,64.27
2023-02-27T06:05:00.356Z,62.48
2023-02-27T06:08:59.407Z,62.02
2023-02-27T06:12:57.314Z,61.95
2023-02-27T06:16:55.410Z,62.32
2023-02-27T06:20:57.274Z,62.42
2023-02-27T06:24:55.272Z,62.04
2023-02-27T06:28:53.287Z,62.57
2023-02-27T06:32:44.346Z,62.90
2023-02-27T06:36:42.311Z,62.05
2023-02-27T06:40:40.241Z,61.12
2023-02-27T06:44:38.254Z,60.89
2023-02-27T06:48:36.225Z,59.91
2023-02-27T06:52:34.227Z,59.00
2023-02-27T06:56:32.271Z,59.81
2023-02-27T07:00:11.898Z,60.46
2023-02-27T07:03:35.801Z,61.15
2023-02-27T07:07:35.073Z,60.39
2023-02-27T07:10:47.249Z,58.01
2023-02-27T07:14:12.580Z,57.38
2023-02-27T07:17:36.946Z,57.10
2023-02-27T07:21:00.983Z,57.10
2023-02-27T07:24:24.894Z,57.45
2023-02-27T07:27:50.827Z,57.13
2023-02-27T07:31:15.387Z,56.05
2023-02-27T07:34:39.245Z,55.74
2023-02-27T07:38:03.144Z,55.27
2023-02-27T07:41:30.710Z,55.17
2023-02-27T07:44:57.200Z,54.62
2023-02-27T07:48:21.080Z,55.17
2023-02-27T07:51:45.041Z,55.83
2023-02-27T07:55:09.801Z,56.40
2023-02-27T07:58:33.747Z,56.08
2023-02-27T08:01:57.709Z,55.41
2023-02-27T08:05:21.620Z,55.28
2023-02-27T08:08:45.871Z,55.09
2023-02-27T08:12:09.746Z,54.12
2023-02-27T08:15:34.244Z,54.09
2023-02-27T08:18:58.394Z,53.46
2023-02-27T08:22:22.440Z,53.02
2023-02-27T08:25:46.300Z,52.96
2023-02-27T08:29:10.330Z,53.73
2023-02-27T08:32:34.819Z,53.51
2023-02-27T08:35:59.007Z,53.27
2023-02-27T08:39:24.188Z,52.97
2023-02-27T08:42:48.270Z,52.84
2023-02-27T08:46:12.254Z,53.34
2023-02-27T08:49:36.617Z,52.98
2023-02-27T08:53:00.711Z,52.67
2023-02-27T08:56:24.866Z,52.21
2023-02-27T08:59:49.199Z,52.92
2023-02-27T09:03:13.451Z,52.89
2023-02-27T09:06:38.188Z,52.89
2023-02-27T09:10:02.260Z,53.40
2023-02-27T09:13:26.970Z,52.65
2023-02-27T09:16:51.365Z,52.93
2023-02-27T09:20:16.041Z,53.00
2023-02-27T09:23:40.336Z,54.21
2023-02-27T09:27:04.734Z,54.72
2023-02-27T09:30:29.051Z,52.98
2023-02-27T09:33:53.022Z,53.32
2023-02-27T09:37:17.160Z,52.82
2023-02-27T09:40:43.335Z,52.31
2023-02-27T09:44:18.129Z,52.02
2023-02-27T09:47:48.113Z,51.38
2023-02-27T09:51:12.321Z,49.62
2023-02-27T09:54:36.141Z,49.50
2023-02-27T09:58:13.563Z,49.45
2023-02-27T10:01:46.951Z,49.56
2023-02-27T10:05:23.810Z,49.24
2023-02-27T10:08:54.866Z,49.68
2023-02-27T10:12:50.846Z,48.59
2023-02-27T10:16:18.356Z,48.53
2023-02-27T10:19:46.355Z,49.77
2023-02-27T10:23:23.081Z,49.69
2023-02-27T10:26:47.510Z,48.90
2023-02-27T10:30:30.358Z,49.60
2023-02-27T10:33:57.904Z,50.07
2023-02-27T10:37:25.930Z,50.56
2023-02-27T10:40:50.305Z,50.68
2023-02-27T10:44:18.842Z,50.84
2023-02-27T10:47:44.207Z,51.06
2023-02-27T10:51:21.193Z,51.42
2023-02-27T10:54:47.013Z,51.19
2023-02-27T10:58:19.359Z,51.10
2023-02-27T11:02:04.703Z,50.07
2023-02-27T11:05:31.337Z,50.57
2023-02-27T11:09:21.565Z,50.79
2023-02-27T11:13:05.843Z,50.94
2023-02-27T11:16:29.726Z,50.63
2023-02-27T11:19:53.701Z,50.86
2023-02-27T11:23:26.327Z,50.76
2023-02-27T11:27:05.704Z,50.86
2023-02-27T11:30:32.129Z,50.34
2023-02-27T11:33:58.912Z,49.90
2023-02-27T11:37:25.854Z,49.79
2023-02-27T11:40:55.058Z,49.49
2023-02-27T11:44:27.331Z,49.73
2023-02-27T11:48:20.701Z,49.19
2023-02-27T11:51:59.760Z,49.08
2023-02-27T11:55:28.195Z,48.75
2023-02-27T11:59:32.028Z,48.39
2023-02-27T12:03:22.556Z,48.16
2023-02-27T12:07:16.445Z,47.63
2023-02-27T12:11:11.497Z,46.73
2023-02-27T12:14:46.735Z,47.48
2023-02-27T12:18:23.278Z,47.39
2023-02-27T12:21:53.648Z,47.93
2023-02-27T12:25:33.468Z,49.13
2023-02-27T12:29:27.961Z,49.89
2023-02-27T12:33:28.567Z,49.95
2023-02-27T12:36:59.815Z,50.04
2023-02-27T12:40:37.167Z,49.62
2023-02-27T12:44:09.803Z,50.52
2023-02-27T12:47:45.853Z,50.55
2023-02-27T12:51:30.981Z,50.84
2023-02-27T12:55:22.593Z,50.46
2023-02-27T12:58:49.449Z,51.35
2023-02-27T13:02:44.763Z,51.00
2023-02-27T13:06:20.985Z,51.12
2023-02-27T13:09:50.959Z,50.42
2023-02-27T13:13:36.775Z,50.16
2023-02-27T13:17:19.481Z,49.81
2023-02-27T13:20:56.920Z,49.54
2023-02-27T13:24:31.292Z,49.98
2023-02-27T13:28:02.006Z,50.80
2023-02-27T13:31:44.289Z,51.71
2023-02-27T13:35:21.445Z,52.21
2023-02-27T13:38:53.681Z,52.05
2023-02-27T13:42:27.713Z,51.98
2023-02-27T13:46:02.928Z,51.73
2023-02-27T13:49:30.000Z,51.81
2023-02-27T13:52:54.874Z,51.78
2023-02-27T13:56:23.066Z,51.53
2023-02-27T13:59:54.692Z,50.61
2023-02-27T14:03:25.831Z,49.75
2023-02-27T14:06:50.637Z,50.29
2023-02-27T14:10:25.802Z,51.19
2023-02-27T14:13:54.782Z,52.05
2023-02-27T14:17:37.767Z,52.67
2023-02-27T14:21:02.274Z,53.21
2023-02-27T14:24:38.466Z,54.07
2023-02-27T14:28:05.248Z,53.83
2023-02-27T14:31:53.771Z,53.53
2023-02-27T14:35:51.707Z,53.77
2023-02-27T14:39:51.753Z,53.63
2023-02-27T14:44:01.675Z,53.46
2023-02-27T14:47:59.614Z,53.18
2023-02-27T14:51:57.692Z,51.65
2023-02-27T14:55:55.676Z,51.40
2023-02-27T15:00:01.632Z,51.34
2023-02-27T15:04:06.159Z,51.37
2023-02-27T15:08:03.573Z,51.10
2023-02-27T15:12:04.430Z,50.98
2023-02-27T15:16:14.968Z,52.00
2023-02-27T15:20:13.630Z,53.09
2023-02-27T15:24:13.595Z,53.24
2023-02-27T15:28:16.636Z,52.85
2023-02-27T15:32:14.795Z,53.18
2023-02-27T15:36:13.647Z,53.82
2023-02-27T15:40:15.578Z,53.88
2023-02-27T15:44:13.730Z,54.22
2023-02-27T15:47:51.233Z,54.37
2023-02-27T15:51:15.186Z,54.68
2023-02-27T15:54:48.047Z,55.38
2023-02-27T15:58:25.628Z,55.27
2023-02-27T16:01:50.851Z,54.37
2023-02-27T16:05:24.623Z,54.25
2023-02-27T16:08:55.671Z,54.66
2023-02-27T16:12:38.096Z,53.40
2023-02-27T16:16:26.713Z,53.65
2023-02-27T16:19:51.383Z,53.75
2023-02-27T16:23:29.106Z,54.30
2023-02-27T16:26:54.344Z,53.67
2023-02-27T16:30:18.484Z,53.77
2023-02-27T16:33:42.931Z,54.36
2023-02-27T16:37:08.347Z,54.90
2023-02-27T16:40:33.970Z,54.68
2023-02-27T16:43:58.214Z,54.39
2023-02-27T16:47:23.000Z,54.67
2023-02-27T16:50:46.901Z,55.00
2023-02-27T16:54:11.376Z,54.80
2023-02-27T16:57:36.481Z,54.88
2023-02-27T17:01:00.468Z,54.29
2023-02-27T17:04:26.547Z,53.59
2023-02-27T17:07:50.560Z,53.81
2023-02-27T17:11:14.618Z,54.31
2023-02-27T17:14:39.115Z,54.77
2023-02-27T17:18:05.458Z,53.90
2023-02-27T17:21:34.849Z,53.37
2023-02-27T17:24:59.142Z,53.92
2023-02-27T17:28:24.260Z,54.42
2023-02-27T17:31:48.550Z,54.21
2023-02-27T17:35:13.074Z,54.09
2023-02-27T17:38:37.674Z,54.13
2023-02-27T17:42:01.879Z,54.34
2023-02-27T17:45:27.336Z,54.49
2023-02-27T17:48:51.335Z,54.31
2023-02-27T17:52:15.716Z,55.19
2023-02-27T17:55:40.758Z,54.81
2023-02-27T17:59:04.774Z,54.37
2023-02-27T18:02:29.000Z,54.47
2023-02-27T18:05:53.390Z,54.42
2023-02-27T18:09:17.647Z,54.36
2023-02-27T18:12:41.681Z,54.26
2023-02-27T18:16:06.062Z,54.49
2023-02-27T18:19:32.390Z,54.83
2023-02-27T18:22:56.681Z,54.18
2023-02-27T18:26:30.147Z,53.48
2023-02-27T18:29:54.961Z,53.53
2023-02-27T18:33:20.460Z,54.25
2023-02-27T18:36:44.707Z,54.01
2023-02-27T18:40:10.085Z,53.93
2023-02-27T18:43:34.686Z,53.71
2023-02-27T18:46:58.895Z,53.98
2023-02-27T18:50:23.361Z,54.09
2023-02-27T18:53:50.502Z,54.31
2023-02-27T18:57:14.468Z,54.96
2023-02-27T19:00:38.583Z,55.15
2023-02-27T19:04:05.051Z,55.52
2023-02-27T19:07:31.783Z,55.15
2023-02-27T19:10:57.361Z,54.90
2023-02-27T19:14:21.402Z,55.11
2023-02-27T19:17:45.279Z,55.18
2023-02-27T19:21:09.911Z,55.54
2023-02-27T19:24:34.185Z,55.92
2023-02-27T19:27:58.540Z,56.38
2023-02-27T19:31:25.354Z,56.99
2023-02-27T19:34:49.563Z,57.16
2023-02-27T19:38:13.940Z,57.44
2023-02-27T19:41:38.076Z,57.74
2023-02-27T19:45:02.068Z,57.76
2023-02-27T19:48:27.465Z,57.86
2023-02-27T19:51:51.577Z,57.80
2023-02-27T19:55:16.939Z,58.00
2023-02-27T19:58:42.380Z,57.80
2023-02-27T20:02:06.453Z,57.78
2023-02-27T20:05:30.624Z,57.82
2023-02-27T20:08:55.185Z,58.23
2023-02-27T20:12:19.336Z,58.16
2023-02-27T20:15:43.311Z,58.43
2023-02-27T20:19:10.315Z,58.00
2023-02-27T20:22:34.832Z,57.78
2023-02-27T20:25:59.830Z,58.42
2023-02-27T20:29:26.653Z,58.69
2023-02-27T20:32:50.980Z,58.90
2023-02-27T20:36:16.247Z,59.25
2023-02-27T20:39:40.703Z,59.61
2023-02-27T20:43:04.642Z,59.87
2023-02-27T20:46:31.112Z,59.93
2023-02-27T20:49:55.062Z,60.20
2023-02-27T20:53:19.266Z,60.18
2023-02-27T20:56:44.882Z,60.46
2023-02-27T21:00:12.361Z,60.54
2023-02-27T21:03:40.141Z,60.23
2023-02-27T21:07:05.371Z,60.66
2023-02-27T21:10:29.436Z,60.46
2023-02-27T21:13:57.181Z,59.45
2023-02-27T21:17:21.059Z,58.99
2023-02-27T21:20:46.009Z,58.27
2023-02-27T21:24:11.338Z,58.02
2023-02-27T21:27:35.283Z,57.93
2023-02-27T21:30:59.283Z,57.94
2023-02-27T21:34:27.553Z,57.60
2023-02-27T21:37:54.487Z,57.83
2023-02-27T21:41:18.777Z,57.40
2023-02-27T21:44:43.993Z,56.51
2023-02-27T21:48:08.615Z,56.11
2023-02-27T21:51:40.386Z,56.52
2023-02-27T21:55:04.938Z,57.13
2023-02-27T21:58:29.055Z,57.56
2023-02-27T22:01:53.197Z,57.08
2023-02-27T22:05:17.313Z,57.65
2023-02-27T22:08:41.952Z,57.22
2023-02-27T22:12:06.394Z,57.31
2023-02-27T22:15:31.885Z,57.45
2023-02-27T22:18:57.835Z,57.19
2023-02-27T22:22:21.828Z,57.08
2023-02-27T22:25:45.849Z,57.20
2023-02-27T22:29:09.782Z,57.41
2023-02-27T23:02:59.353Z,57.87
2023-02-27T23:06:26.294Z,57.81
2023-02-27T23:09:50.284Z,57.78
2023-02-27T23:13:14.270Z,58.00
2023-02-27T23:16:38.426Z,57.99
2023-02-27T23:20:05.104Z,58.00
2023-02-27T23:23:29.431Z,58.18
2023-02-27T23:26:53.690Z,58.41
2023-02-27T23:30:17.795Z,58.35
2023-02-27T23:33:41.783Z,58.51
2023-02-27T23:37:06.740Z,58.62
2023-02-27T23:40:30.740Z,58.90
2023-02-27T23:44:12.399Z,59.09
2023-02-27T23:47:45.227Z,59.48
2023-02-27T23:51:10.802Z,59.72
2023-02-27T23:54:34.710Z,59.88
2023-02-27T23:58:00.858Z,60.17
